sensor_id;sensor_type;location;lat;lon;timestamp;pressure;altitude;pressure_sealevel;temperature;humidity
11806;BME280;5960;42.602;23.482;2022-07-06T00:01:46;93397.69;;;20.73;86.35
11806;BME280;5960;42.602;23.482;2022-07-06T00:04:13;93397.75;;;20.78;88.93
11806;BME280;5960;42.602;23.482;2022-07-06T00:06:40;93396.53;;;20.91;89.37
11806;BME280;5960;42.602;23.482;2022-07-06T00:09:07;93398.72;;;20.94;86.68
11806;BME280;5960;42.602;23.482;2022-07-06T00:11:34;93394.75;;;21.02;86.05
11806;BME280;5960;42.602;23.482;2022-07-06T00:14:02;93404.41;;;21.03;86.79
11806;BME280;5960;42.602;23.482;2022-07-06T00:16:29;93394.84;;;21.12;87.27
11806;BME280;5960;42.602;23.482;2022-07-06T00:18:56;93400.94;;;21.08;88.10
11806;BME280;5960;42.602;23.482;2022-07-06T00:21:23;93400.16;;;21.07;88.88
11806;BME280;5960;42.602;23.482;2022-07-06T00:23:50;93395.75;;;20.91;87.79
11806;BME280;5960;42.602;23.482;2022-07-06T00:26:17;93412.66;;;20.96;88.38
11806;BME280;5960;42.602;23.482;2022-07-06T00:28:44;93412.22;;;21.04;88.72
11806;BME280;5960;42.602;23.482;2022-07-06T00:31:12;93411.09;;;21.00;89.55
11806;BME280;5960;42.602;23.482;2022-07-06T00:33:39;93419.69;;;21.08;89.46
11806;BME280;5960;42.602;23.482;2022-07-06T00:36:06;93419.47;;;21.09;87.97
11806;BME280;5960;42.602;23.482;2022-07-06T00:38:33;93420.25;;;21.10;88.55
11806;BME280;5960;42.602;23.482;2022-07-06T00:41:00;93415.25;;;21.18;88.85
11806;BME280;5960;42.602;23.482;2022-07-06T00:43:26;93421.19;;;21.26;89.02
11806;BME280;5960;42.602;23.482;2022-07-06T00:45:53;93421.47;;;21.24;89.69
11806;BME280;5960;42.602;23.482;2022-07-06T00:48:21;93423.09;;;21.30;88.77
11806;BME280;5960;42.602;23.482;2022-07-06T00:50:48;93417.78;;;21.35;88.99
11806;BME280;5960;42.602;23.482;2022-07-06T00:53:15;93414.59;;;21.39;88.60
11806;BME280;5960;42.602;23.482;2022-07-06T00:55:42;93405.44;;;21.34;88.63
11806;BME280;5960;42.602;23.482;2022-07-06T00:58:09;93402.19;;;21.27;87.99
11806;BME280;5960;42.602;23.482;2022-07-06T01:00:36;93401.88;;;21.24;87.62
11806;BME280;5960;42.602;23.482;2022-07-06T01:03:03;93397.34;;;21.24;88.56
11806;BME280;5960;42.602;23.482;2022-07-06T01:05:33;93404.19;;;21.10;89.08
11806;BME280;5960;42.602;23.482;2022-07-06T01:07:59;93405.25;;;21.09;89.16
11806;BME280;5960;42.602;23.482;2022-07-06T01:10:27;93414.50;;;20.91;88.17
11806;BME280;5960;42.602;23.482;2022-07-06T01:12:54;93403.84;;;20.73;88.36
11806;BME280;5960;42.602;23.482;2022-07-06T01:15:24;93402.31;;;20.78;89.65
11806;BME280;5960;42.602;23.482;2022-07-06T01:17:51;93393.91;;;20.69;89.31
11806;BME280;5960;42.602;23.482;2022-07-06T01:20:20;93390.56;;;20.79;89.71
11806;BME280;5960;42.602;23.482;2022-07-06T01:22:49;93397.56;;;20.85;88.09
11806;BME280;5960;42.602;23.482;2022-07-06T01:25:17;93393.56;;;20.87;88.81
11806;BME280;5960;42.602;23.482;2022-07-06T01:27:44;93388.66;;;20.79;87.28
11806;BME280;5960;42.602;23.482;2022-07-06T01:30:13;93389.28;;;20.59;87.39
11806;BME280;5960;42.602;23.482;2022-07-06T01:32:40;93387.59;;;20.25;88.34
11806;BME280;5960;42.602;23.482;2022-07-06T01:35:09;93383.44;;;20.12;88.53
11806;BME280;5960;42.602;23.482;2022-07-06T01:37:38;93387.53;;;19.98;89.23
11806;BME280;5960;42.602;23.482;2022-07-06T01:40:06;93391.34;;;19.85;90.03
11806;BME280;5960;42.602;23.482;2022-07-06T01:42:34;93387.81;;;19.79;90.74
11806;BME280;5960;42.602;23.482;2022-07-06T01:45:01;93386.50;;;19.82;90.61
11806;BME280;5960;42.602;23.482;2022-07-06T01:47:28;93385.69;;;19.98;90.44
11806;BME280;5960;42.602;23.482;2022-07-06T01:49:57;93380.78;;;20.18;90.00
11806;BME280;5960;42.602;23.482;2022-07-06T01:52:25;93389.16;;;20.21;89.40
11806;BME280;5960;42.602;23.482;2022-07-06T01:54:53;93389.59;;;20.13;88.23
11806;BME280;5960;42.602;23.482;2022-07-06T01:57:19;93402.75;;;20.20;88.62
11806;BME280;5960;42.602;23.482;2022-07-06T01:59:46;93392.38;;;20.23;89.44
11806;BME280;5960;42.602;23.482;2022-07-06T02:02:13;93402.88;;;20.30;89.69
11806;BME280;5960;42.602;23.482;2022-07-06T02:04:40;93408.41;;;20.45;88.93
11806;BME280;5960;42.602;23.482;2022-07-06T02:07:07;93408.47;;;20.51;88.58
11806;BME280;5960;42.602;23.482;2022-07-06T02:09:34;93402.69;;;20.64;87.36
11806;BME280;5960;42.602;23.482;2022-07-06T02:12:03;93420.06;;;20.62;87.65
11806;BME280;5960;42.602;23.482;2022-07-06T02:14:29;93419.88;;;20.68;87.96
11806;BME280;5960;42.602;23.482;2022-07-06T02:16:56;93417.25;;;20.73;88.36
11806;BME280;5960;42.602;23.482;2022-07-06T02:19:23;93415.75;;;20.83;88.50
11806;BME280;5960;42.602;23.482;2022-07-06T02:21:50;93414.00;;;20.94;88.34
11806;BME280;5960;42.602;23.482;2022-07-06T02:24:16;93409.97;;;20.96;88.36
11806;BME280;5960;42.602;23.482;2022-07-06T02:26:43;93411.16;;;20.78;88.10
11806;BME280;5960;42.602;23.482;2022-07-06T02:29:11;93420.59;;;20.86;88.35
11806;BME280;5960;42.602;23.482;2022-07-06T02:31:38;93427.31;;;20.88;88.64
11806;BME280;5960;42.602;23.482;2022-07-06T02:34:04;93428.88;;;20.84;88.37
11806;BME280;5960;42.602;23.482;2022-07-06T02:36:31;93426.78;;;20.64;89.55
11806;BME280;5960;42.602;23.482;2022-07-06T02:38:58;93427.09;;;20.68;89.58
11806;BME280;5960;42.602;23.482;2022-07-06T02:41:25;93432.63;;;20.61;89.30
11806;BME280;5960;42.602;23.482;2022-07-06T02:43:51;93426.75;;;20.59;89.70
11806;BME280;5960;42.602;23.482;2022-07-06T02:46:19;93418.59;;;20.49;89.14
11806;BME280;5960;42.602;23.482;2022-07-06T02:48:46;93418.19;;;20.62;88.52
11806;BME280;5960;42.602;23.482;2022-07-06T02:51:13;93422.34;;;20.48;87.71
11806;BME280;5960;42.602;23.482;2022-07-06T02:53:40;93418.94;;;20.57;88.70
11806;BME280;5960;42.602;23.482;2022-07-06T02:56:06;93418.31;;;20.72;88.11
11806;BME280;5960;42.602;23.482;2022-07-06T02:58:33;93416.28;;;20.80;88.15
11806;BME280;5960;42.602;23.482;2022-07-06T03:01:00;93408.59;;;20.88;87.19
11806;BME280;5960;42.602;23.482;2022-07-06T03:03:28;93423.03;;;20.87;85.95
11806;BME280;5960;42.602;23.482;2022-07-06T03:05:55;93416.06;;;20.86;85.72
11806;BME280;5960;42.602;23.482;2022-07-06T03:08:22;93410.84;;;20.74;83.55
11806;BME280;5960;42.602;23.482;2022-07-06T03:10:49;93412.53;;;20.58;82.92
11806;BME280;5960;42.602;23.482;2022-07-06T03:13:15;93406.28;;;20.48;83.29
11806;BME280;5960;42.602;23.482;2022-07-06T03:15:42;93413.13;;;20.38;83.72
11806;BME280;5960;42.602;23.482;2022-07-06T03:18:09;93417.53;;;20.50;83.73
11806;BME280;5960;42.602;23.482;2022-07-06T03:20:37;93409.94;;;20.41;84.19
11806;BME280;5960;42.602;23.482;2022-07-06T03:23:04;93417.97;;;20.41;83.43
11806;BME280;5960;42.602;23.482;2022-07-06T03:25:31;93406.69;;;20.34;82.50
11806;BME280;5960;42.602;23.482;2022-07-06T03:27:58;93416.81;;;20.32;83.34
11806;BME280;5960;42.602;23.482;2022-07-06T03:30:25;93413.13;;;20.38;83.13
11806;BME280;5960;42.602;23.482;2022-07-06T03:32:52;93416.41;;;20.45;83.13
11806;BME280;5960;42.602;23.482;2022-07-06T03:35:19;93418.25;;;20.40;82.89
11806;BME280;5960;42.602;23.482;2022-07-06T03:37:47;93426.03;;;20.19;84.43
11806;BME280;5960;42.602;23.482;2022-07-06T03:40:14;93433.19;;;20.13;84.58
11806;BME280;5960;42.602;23.482;2022-07-06T03:42:41;93428.34;;;20.10;84.08
11806;BME280;5960;42.602;23.482;2022-07-06T03:45:09;93434.53;;;19.94;84.77
11806;BME280;5960;42.602;23.482;2022-07-06T03:47:36;93438.03;;;19.94;84.86
11806;BME280;5960;42.602;23.482;2022-07-06T03:50:03;93434.03;;;19.97;85.40
11806;BME280;5960;42.602;23.482;2022-07-06T03:52:30;93438.91;;;20.00;85.07
11806;BME280;5960;42.602;23.482;2022-07-06T03:54:58;93443.75;;;20.03;85.03
11806;BME280;5960;42.602;23.482;2022-07-06T03:57:25;93436.78;;;20.02;84.80
11806;BME280;5960;42.602;23.482;2022-07-06T03:59:52;93435.72;;;20.03;85.08
11806;BME280;5960;42.602;23.482;2022-07-06T04:02:18;93443.69;;;19.98;84.77
11806;BME280;5960;42.602;23.482;2022-07-06T04:04:45;93438.78;;;19.90;85.28
11806;BME280;5960;42.602;23.482;2022-07-06T04:07:12;93445.00;;;19.95;85.67
11806;BME280;5960;42.602;23.482;2022-07-06T04:09:39;93436.75;;;19.80;86.22
11806;BME280;5960;42.602;23.482;2022-07-06T04:12:07;93441.47;;;19.90;86.49
11806;BME280;5960;42.602;23.482;2022-07-06T04:14:34;93438.81;;;19.95;86.21
11806;BME280;5960;42.602;23.482;2022-07-06T04:17:01;93448.91;;;19.88;86.62
11806;BME280;5960;42.602;23.482;2022-07-06T04:19:48;93442.59;;;19.77;87.51
11806;BME280;5960;42.602;23.482;2022-07-06T04:22:16;93446.53;;;19.74;88.04
11806;BME280;5960;42.602;23.482;2022-07-06T04:24:42;93445.38;;;19.65;88.49
11806;BME280;5960;42.602;23.482;2022-07-06T04:27:10;93451.00;;;19.85;88.75
11806;BME280;5960;42.602;23.482;2022-07-06T04:29:37;93444.44;;;20.15;85.92
11806;BME280;5960;42.602;23.482;2022-07-06T04:32:04;93448.72;;;20.39;86.29
11806;BME280;5960;42.602;23.482;2022-07-06T04:34:31;93450.88;;;20.64;85.09
11806;BME280;5960;42.602;23.482;2022-07-06T04:36:58;93454.34;;;20.87;82.98
11806;BME280;5960;42.602;23.482;2022-07-06T04:39:25;93445.66;;;21.02;82.13
11806;BME280;5960;42.602;23.482;2022-07-06T04:41:52;93452.00;;;21.23;81.28
11806;BME280;5960;42.602;23.482;2022-07-06T04:44:20;93453.13;;;21.32;80.03
11806;BME280;5960;42.602;23.482;2022-07-06T04:46:46;93452.75;;;21.51;80.39
11806;BME280;5960;42.602;23.482;2022-07-06T04:49:13;93449.38;;;21.66;77.98
11806;BME280;5960;42.602;23.482;2022-07-06T04:51:40;93455.13;;;21.85;77.82
11806;BME280;5960;42.602;23.482;2022-07-06T04:54:07;93463.25;;;21.96;77.10
11806;BME280;5960;42.602;23.482;2022-07-06T04:56:34;93469.47;;;22.06;76.54
11806;BME280;5960;42.602;23.482;2022-07-06T04:59:00;93468.22;;;22.24;76.57
11806;BME280;5960;42.602;23.482;2022-07-06T05:01:28;93482.84;;;22.49;76.14
11806;BME280;5960;42.602;23.482;2022-07-06T05:03:55;93489.56;;;22.57;75.08
11806;BME280;5960;42.602;23.482;2022-07-06T05:06:22;93494.19;;;22.67;74.95
11806;BME280;5960;42.602;23.482;2022-07-06T05:08:48;93495.28;;;22.66;75.09
11806;BME280;5960;42.602;23.482;2022-07-06T05:11:15;93500.31;;;22.57;75.81
11806;BME280;5960;42.602;23.482;2022-07-06T05:13:42;93507.19;;;22.32;76.22
11806;BME280;5960;42.602;23.482;2022-07-06T05:16:09;93509.56;;;22.29;76.39
11806;BME280;5960;42.602;23.482;2022-07-06T05:18:37;93510.38;;;22.34;77.34
11806;BME280;5960;42.602;23.482;2022-07-06T05:21:04;93510.38;;;22.29;76.53
11806;BME280;5960;42.602;23.482;2022-07-06T05:23:31;93515.44;;;22.20;76.66
11806;BME280;5960;42.602;23.482;2022-07-06T05:25:57;93515.44;;;22.20;76.18
11806;BME280;5960;42.602;23.482;2022-07-06T05:28:24;93522.44;;;22.21;75.84
11806;BME280;5960;42.602;23.482;2022-07-06T05:30:51;93526.94;;;22.11;75.77
11806;BME280;5960;42.602;23.482;2022-07-06T05:33:18;93527.13;;;21.99;74.49
11806;BME280;5960;42.602;23.482;2022-07-06T05:35:46;93532.91;;;21.85;75.21
11806;BME280;5960;42.602;23.482;2022-07-06T05:38:13;93533.19;;;21.84;75.53
11806;BME280;5960;42.602;23.482;2022-07-06T05:40:39;93533.41;;;21.82;74.92
11806;BME280;5960;42.602;23.482;2022-07-06T05:43:06;93531.75;;;21.71;75.62
11806;BME280;5960;42.602;23.482;2022-07-06T05:45:33;93534.09;;;21.67;75.77
11806;BME280;5960;42.602;23.482;2022-07-06T05:48:00;93537.69;;;21.78;75.39
11806;BME280;5960;42.602;23.482;2022-07-06T05:50:44;93533.66;;;21.75;75.19
11806;BME280;5960;42.602;23.482;2022-07-06T05:53:12;93540.16;;;21.85;74.89
11806;BME280;5960;42.602;23.482;2022-07-06T05:55:38;93543.91;;;21.89;75.07
11806;BME280;5960;42.602;23.482;2022-07-06T05:58:05;93534.56;;;21.91;75.29
11806;BME280;5960;42.602;23.482;2022-07-06T06:00:32;93548.50;;;21.88;74.80
11806;BME280;5960;42.602;23.482;2022-07-06T06:02:59;93531.63;;;21.93;74.43
11806;BME280;5960;42.602;23.482;2022-07-06T06:05:27;93530.28;;;21.90;73.45
11806;BME280;5960;42.602;23.482;2022-07-06T06:07:53;93532.22;;;22.00;73.36
11806;BME280;5960;42.602;23.482;2022-07-06T06:10:21;93539.19;;;22.01;73.33
11806;BME280;5960;42.602;23.482;2022-07-06T06:12:49;93538.72;;;22.09;72.52
11806;BME280;5960;42.602;23.482;2022-07-06T06:15:17;93539.00;;;22.13;72.37
11806;BME280;5960;42.602;23.482;2022-07-06T06:17:43;93528.47;;;22.01;73.29
11806;BME280;5960;42.602;23.482;2022-07-06T06:20:13;93534.81;;;21.90;72.62
11806;BME280;5960;42.602;23.482;2022-07-06T06:22:47;93526.03;;;22.00;72.31
11806;BME280;5960;42.602;23.482;2022-07-06T06:25:14;93531.69;;;22.03;72.90
11806;BME280;5960;42.602;23.482;2022-07-06T06:27:42;93533.03;;;22.06;73.04
11806;BME280;5960;42.602;23.482;2022-07-06T06:30:10;93525.66;;;22.29;72.99
11806;BME280;5960;42.602;23.482;2022-07-06T06:32:37;93527.13;;;22.47;72.27
11806;BME280;5960;42.602;23.482;2022-07-06T06:35:04;93526.66;;;22.60;71.78
11806;BME280;5960;42.602;23.482;2022-07-06T06:37:32;93522.66;;;22.73;71.16
11806;BME280;5960;42.602;23.482;2022-07-06T06:39:59;93522.72;;;22.83;71.62
11806;BME280;5960;42.602;23.482;2022-07-06T06:42:26;93534.53;;;22.82;70.27
11806;BME280;5960;42.602;23.482;2022-07-06T06:44:54;93526.75;;;22.86;69.96
11806;BME280;5960;42.602;23.482;2022-07-06T06:47:21;93529.41;;;22.76;69.73
11806;BME280;5960;42.602;23.482;2022-07-06T06:49:48;93524.59;;;22.78;69.52
11806;BME280;5960;42.602;23.482;2022-07-06T06:52:14;93525.63;;;22.72;69.82
11806;BME280;5960;42.602;23.482;2022-07-06T06:54:41;93526.22;;;22.89;68.98
11806;BME280;5960;42.602;23.482;2022-07-06T06:57:08;93529.72;;;22.90;68.33
11806;BME280;5960;42.602;23.482;2022-07-06T06:59:34;93525.44;;;22.89;68.17
11806;BME280;5960;42.602;23.482;2022-07-06T07:02:03;93518.47;;;23.03;68.31
11806;BME280;5960;42.602;23.482;2022-07-06T07:04:30;93520.66;;;23.11;67.98
11806;BME280;5960;42.602;23.482;2022-07-06T07:06:56;93519.78;;;22.95;68.59
11806;BME280;5960;42.602;23.482;2022-07-06T07:09:23;93518.75;;;23.02;67.46
11806;BME280;5960;42.602;23.482;2022-07-06T07:11:50;93521.13;;;22.98;68.45
11806;BME280;5960;42.602;23.482;2022-07-06T07:14:17;93524.16;;;23.17;67.76
11806;BME280;5960;42.602;23.482;2022-07-06T07:16:43;93519.34;;;23.29;67.58
11806;BME280;5960;42.602;23.482;2022-07-06T07:19:12;93522.31;;;23.49;67.66
11806;BME280;5960;42.602;23.482;2022-07-06T07:21:38;93529.06;;;23.62;66.32
11806;BME280;5960;42.602;23.482;2022-07-06T07:24:06;93520.44;;;23.80;65.92
11806;BME280;5960;42.602;23.482;2022-07-06T07:26:33;93516.44;;;24.03;65.77
11806;BME280;5960;42.602;23.482;2022-07-06T07:29:00;93522.84;;;24.28;64.55
11806;BME280;5960;42.602;23.482;2022-07-06T07:31:27;93525.47;;;24.49;63.86
11806;BME280;5960;42.602;23.482;2022-07-06T07:33:54;93520.56;;;24.67;64.04
11806;BME280;5960;42.602;23.482;2022-07-06T07:36:23;93518.66;;;24.72;63.07
11806;BME280;5960;42.602;23.482;2022-07-06T07:38:50;93510.25;;;24.84;62.73
11806;BME280;5960;42.602;23.482;2022-07-06T07:41:17;93519.88;;;25.01;62.09
11806;BME280;5960;42.602;23.482;2022-07-06T07:43:44;93515.53;;;25.05;61.57
11806;BME280;5960;42.602;23.482;2022-07-06T07:46:11;93521.69;;;24.50;62.54
11806;BME280;5960;42.602;23.482;2022-07-06T07:48:38;93520.66;;;24.30;63.61
11806;BME280;5960;42.602;23.482;2022-07-06T07:51:05;93521.19;;;24.32;63.83
11806;BME280;5960;42.602;23.482;2022-07-06T07:53:33;93528.47;;;24.32;62.91
11806;BME280;5960;42.602;23.482;2022-07-06T07:56:00;93518.97;;;24.55;63.20
11806;BME280;5960;42.602;23.482;2022-07-06T07:58:27;93516.09;;;25.02;62.23
11806;BME280;5960;42.602;23.482;2022-07-06T08:00:54;93512.38;;;25.43;59.75
11806;BME280;5960;42.602;23.482;2022-07-06T08:03:20;93515.19;;;25.67;58.35
11806;BME280;5960;42.602;23.482;2022-07-06T08:05:47;93514.84;;;26.03;58.57
11806;BME280;5960;42.602;23.482;2022-07-06T08:08:14;93500.38;;;26.23;57.46
11806;BME280;5960;42.602;23.482;2022-07-06T08:10:42;93508.09;;;26.35;56.97
11806;BME280;5960;42.602;23.482;2022-07-06T08:13:10;93504.50;;;26.16;56.69
11806;BME280;5960;42.602;23.482;2022-07-06T08:15:37;93505.31;;;26.40;57.46
11806;BME280;5960;42.602;23.482;2022-07-06T08:18:04;93504.66;;;26.73;56.67
11806;BME280;5960;42.602;23.482;2022-07-06T08:20:30;93519.00;;;26.98;55.74
11806;BME280;5960;42.602;23.482;2022-07-06T08:22:57;93524.63;;;27.01;54.36
11806;BME280;5960;42.602;23.482;2022-07-06T08:25:24;93512.34;;;26.90;55.25
11806;BME280;5960;42.602;23.482;2022-07-06T08:27:52;93512.38;;;27.28;54.88
11806;BME280;5960;42.602;23.482;2022-07-06T08:30:19;93519.44;;;27.43;52.86
11806;BME280;5960;42.602;23.482;2022-07-06T08:32:46;93520.06;;;27.59;52.33
11806;BME280;5960;42.602;23.482;2022-07-06T08:35:13;93522.44;;;27.80;53.19
11806;BME280;5960;42.602;23.482;2022-07-06T08:37:39;93516.44;;;27.83;52.12
11806;BME280;5960;42.602;23.482;2022-07-06T08:40:07;93517.38;;;27.92;52.53
11806;BME280;5960;42.602;23.482;2022-07-06T08:42:35;93519.22;;;27.78;52.02
11806;BME280;5960;42.602;23.482;2022-07-06T08:45:05;93517.41;;;27.73;51.62
11806;BME280;5960;42.602;23.482;2022-07-06T08:47:35;93505.72;;;27.59;52.30
11806;BME280;5960;42.602;23.482;2022-07-06T08:50:04;93507.84;;;27.62;52.25
11806;BME280;5960;42.602;23.482;2022-07-06T08:52:31;93512.09;;;27.49;53.18
11806;BME280;5960;42.602;23.482;2022-07-06T08:54:58;93506.38;;;27.51;53.50
11806;BME280;5960;42.602;23.482;2022-07-06T08:57:25;93504.44;;;27.70;53.03
11806;BME280;5960;42.602;23.482;2022-07-06T08:59:52;93506.00;;;28.23;52.60
11806;BME280;5960;42.602;23.482;2022-07-06T09:02:24;93509.94;;;28.45;50.86
11806;BME280;5960;42.602;23.482;2022-07-06T09:04:54;93504.13;;;28.24;50.79
11806;BME280;5960;42.602;23.482;2022-07-06T09:07:22;93511.16;;;28.25;51.13
11806;BME280;5960;42.602;23.482;2022-07-06T09:09:50;93510.75;;;28.46;51.52
11806;BME280;5960;42.602;23.482;2022-07-06T09:12:18;93507.34;;;28.68;49.16
11806;BME280;5960;42.602;23.482;2022-07-06T09:14:45;93508.34;;;28.58;49.36
11806;BME280;5960;42.602;23.482;2022-07-06T09:17:12;93513.38;;;28.37;50.03
11806;BME280;5960;42.602;23.482;2022-07-06T09:19:40;93507.53;;;28.44;50.94
11806;BME280;5960;42.602;23.482;2022-07-06T09:22:07;93514.13;;;28.85;49.97
11806;BME280;5960;42.602;23.482;2022-07-06T09:24:41;93499.16;;;29.24;47.83
11806;BME280;5960;42.602;23.482;2022-07-06T09:27:15;93510.50;;;29.40;47.42
11806;BME280;5960;42.602;23.482;2022-07-06T09:29:42;93515.66;;;29.13;48.35
11806;BME280;5960;42.602;23.482;2022-07-06T09:32:09;93504.13;;;28.94;49.61
11806;BME280;5960;42.602;23.482;2022-07-06T09:34:42;93503.53;;;28.97;48.51
11806;BME280;5960;42.602;23.482;2022-07-06T09:37:10;93502.53;;;28.93;49.46
11806;BME280;5960;42.602;23.482;2022-07-06T09:39:37;93505.69;;;29.37;48.13
11806;BME280;5960;42.602;23.482;2022-07-06T09:42:05;93506.50;;;29.83;47.92
11806;BME280;5960;42.602;23.482;2022-07-06T09:44:35;93503.06;;;29.91;48.06
11806;BME280;5960;42.602;23.482;2022-07-06T09:47:04;93494.03;;;30.27;47.64
11806;BME280;5960;42.602;23.482;2022-07-06T09:49:32;93493.97;;;29.96;46.55
11806;BME280;5960;42.602;23.482;2022-07-06T09:52:02;93491.44;;;29.17;48.45
11806;BME280;5960;42.602;23.482;2022-07-06T09:54:29;93490.47;;;28.99;49.10
11806;BME280;5960;42.602;23.482;2022-07-06T09:56:56;93492.31;;;28.76;49.80
11806;BME280;5960;42.602;23.482;2022-07-06T09:59:25;93491.88;;;28.41;51.07
11806;BME280;5960;42.602;23.482;2022-07-06T10:01:53;93486.75;;;28.11;51.48
11806;BME280;5960;42.602;23.482;2022-07-06T10:04:20;93494.88;;;27.92;52.18
11806;BME280;5960;42.602;23.482;2022-07-06T10:06:48;93487.50;;;27.98;53.00
11806;BME280;5960;42.602;23.482;2022-07-06T10:09:18;93489.31;;;28.02;52.97
11806;BME280;5960;42.602;23.482;2022-07-06T10:11:48;93490.38;;;28.20;51.93
11806;BME280;5960;42.602;23.482;2022-07-06T10:14:18;93495.00;;;28.01;52.17
11806;BME280;5960;42.602;23.482;2022-07-06T10:16:46;93496.22;;;27.95;52.10
11806;BME280;5960;42.602;23.482;2022-07-06T10:19:15;93495.53;;;27.70;53.09
11806;BME280;5960;42.602;23.482;2022-07-06T10:21:42;93493.84;;;27.74;52.79
11806;BME280;5960;42.602;23.482;2022-07-06T10:24:10;93491.03;;;27.79;52.82
11806;BME280;5960;42.602;23.482;2022-07-06T10:26:40;93488.91;;;27.76;53.21
11806;BME280;5960;42.602;23.482;2022-07-06T10:29:07;93483.06;;;28.35;52.20
11806;BME280;5960;42.602;23.482;2022-07-06T10:31:37;93477.25;;;28.83;50.63
11806;BME280;5960;42.602;23.482;2022-07-06T10:34:06;93474.00;;;29.46;49.00
11806;BME280;5960;42.602;23.482;2022-07-06T10:36:37;93488.25;;;29.75;48.81
11806;BME280;5960;42.602;23.482;2022-07-06T10:39:04;93483.22;;;29.59;49.30
11806;BME280;5960;42.602;23.482;2022-07-06T10:41:52;93485.16;;;29.45;49.15
11806;BME280;5960;42.602;23.482;2022-07-06T10:44:20;93479.25;;;29.65;48.10
11806;BME280;5960;42.602;23.482;2022-07-06T10:46:52;93480.84;;;29.89;47.99
11806;BME280;5960;42.602;23.482;2022-07-06T10:49:20;93473.78;;;30.11;47.19
11806;BME280;5960;42.602;23.482;2022-07-06T10:51:47;93467.25;;;29.89;47.18
11806;BME280;5960;42.602;23.482;2022-07-06T10:54:16;93472.22;;;29.64;47.32
11806;BME280;5960;42.602;23.482;2022-07-06T10:56:45;93473.63;;;29.62;46.32
11806;BME280;5960;42.602;23.482;2022-07-06T10:59:15;93476.97;;;29.58;47.04
11806;BME280;5960;42.602;23.482;2022-07-06T11:02:11;93480.16;;;30.06;46.94
11806;BME280;5960;42.602;23.482;2022-07-06T11:04:37;93476.53;;;30.20;45.98
11806;BME280;5960;42.602;23.482;2022-07-06T11:07:07;93477.25;;;30.66;45.54
11806;BME280;5960;42.602;23.482;2022-07-06T11:09:35;93471.06;;;30.74;44.88
11806;BME280;5960;42.602;23.482;2022-07-06T11:12:12;93473.31;;;30.81;45.75
11806;BME280;5960;42.602;23.482;2022-07-06T11:14:40;93473.69;;;30.56;44.58
11806;BME280;5960;42.602;23.482;2022-07-06T11:17:10;93467.72;;;30.95;44.45
11806;BME280;5960;42.602;23.482;2022-07-06T11:19:37;93467.75;;;31.12;43.98
11806;BME280;5960;42.602;23.482;2022-07-06T11:22:08;93455.63;;;31.71;43.12
11806;BME280;5960;42.602;23.482;2022-07-06T11:24:37;93463.47;;;31.64;44.08
11806;BME280;5960;42.602;23.482;2022-07-06T11:27:05;93462.50;;;31.33;43.68
11806;BME280;5960;42.602;23.482;2022-07-06T11:29:33;93463.16;;;31.57;44.39
11806;BME280;5960;42.602;23.482;2022-07-06T11:32:04;93462.81;;;31.93;42.17
11806;BME280;5960;42.602;23.482;2022-07-06T11:34:32;93447.03;;;32.08;42.83
11806;BME280;5960;42.602;23.482;2022-07-06T11:37:02;93452.09;;;31.62;42.22
11806;BME280;5960;42.602;23.482;2022-07-06T11:39:31;93455.91;;;31.08;42.56
11806;BME280;5960;42.602;23.482;2022-07-06T11:41:58;93454.13;;;31.03;43.11
11806;BME280;5960;42.602;23.482;2022-07-06T11:44:25;93447.91;;;31.73;42.90
11806;BME280;5960;42.602;23.482;2022-07-06T11:46:53;93441.94;;;32.06;42.17
11806;BME280;5960;42.602;23.482;2022-07-06T11:49:23;93444.22;;;31.95;41.23
11806;BME280;5960;42.602;23.482;2022-07-06T11:51:50;93440.22;;;31.58;42.76
11806;BME280;5960;42.602;23.482;2022-07-06T11:54:17;93428.19;;;31.67;42.15
11806;BME280;5960;42.602;23.482;2022-07-06T11:56:49;93435.75;;;31.62;42.45
11806;BME280;5960;42.602;23.482;2022-07-06T11:59:20;93429.66;;;31.47;42.21
11806;BME280;5960;42.602;23.482;2022-07-06T12:01:48;93427.91;;;31.43;42.39
11806;BME280;5960;42.602;23.482;2022-07-06T12:04:14;93437.81;;;31.47;41.37
11806;BME280;5960;42.602;23.482;2022-07-06T12:06:44;93430.00;;;31.19;42.40
11806;BME280;5960;42.602;23.482;2022-07-06T12:09:12;93434.63;;;31.36;42.30
11806;BME280;5960;42.602;23.482;2022-07-06T12:11:39;93431.75;;;31.50;42.18
11806;BME280;5960;42.602;23.482;2022-07-06T12:14:13;93426.09;;;31.82;41.83
11806;BME280;5960;42.602;23.482;2022-07-06T12:16:40;93432.88;;;31.76;40.91
11806;BME280;5960;42.602;23.482;2022-07-06T12:19:07;93433.03;;;31.27;43.05
11806;BME280;5960;42.602;23.482;2022-07-06T12:21:42;93427.91;;;31.07;42.74
11806;BME280;5960;42.602;23.482;2022-07-06T12:24:17;93437.63;;;31.00;43.63
11806;BME280;5960;42.602;23.482;2022-07-06T12:26:44;93426.16;;;31.38;44.01
11806;BME280;5960;42.602;23.482;2022-07-06T12:29:12;93433.50;;;31.55;41.46
11806;BME280;5960;42.602;23.482;2022-07-06T12:31:41;93431.56;;;31.82;40.79
11806;BME280;5960;42.602;23.482;2022-07-06T12:34:14;93424.44;;;32.07;40.58
11806;BME280;5960;42.602;23.482;2022-07-06T12:36:45;93429.41;;;32.14;40.20
11806;BME280;5960;42.602;23.482;2022-07-06T12:39:15;93425.72;;;32.10;41.89
11806;BME280;5960;42.602;23.482;2022-07-06T12:41:46;93423.22;;;31.87;40.97
11806;BME280;5960;42.602;23.482;2022-07-06T12:44:15;93429.47;;;31.79;40.96
11806;BME280;5960;42.602;23.482;2022-07-06T12:46:43;93422.91;;;31.89;40.99
11806;BME280;5960;42.602;23.482;2022-07-06T12:49:13;93416.50;;;31.85;40.82
11806;BME280;5960;42.602;23.482;2022-07-06T12:51:51;93411.47;;;32.04;40.66
11806;BME280;5960;42.602;23.482;2022-07-06T12:54:19;93408.34;;;32.32;39.13
11806;BME280;5960;42.602;23.482;2022-07-06T12:57:07;93408.50;;;32.36;38.37
11806;BME280;5960;42.602;23.482;2022-07-06T12:59:38;93409.25;;;32.45;39.96
11806;BME280;5960;42.602;23.482;2022-07-06T13:02:06;93411.00;;;32.50;38.12
11806;BME280;5960;42.602;23.482;2022-07-06T13:04:36;93406.72;;;32.40;37.71